sensor_id;sensor_type;location;lat;lon;timestamp;P1;durP1;ratioP1;P2;durP2;ratioP2
7231;SDS011;3657;49.630;11.018;2024-03-17T00:02:12;19.87;;;19.37;;
7231;SDS011;3657;49.630;11.018;2024-03-17T00:04:39;19.33;;;18.90;;
7231;SDS011;3657;49.630;11.018;2024-03-17T00:07:06;18.30;;;17.90;;
7231;SDS011;3657;49.630;11.018;2024-03-17T00:09:33;18.97;;;18.13;;
7231;SDS011;3657;49.630;11.018;2024-03-17T00:11:59;18.80;;;18.40;;
7231;SDS011;3657;49.630;11.018;2024-03-17T00:14:25;19.00;;;18.60;;
7231;SDS011;3657;49.630;11.018;2024-03-17T00:16:53;18.90;;;18.50;;
7231;SDS011;3657;49.630;11.018;2024-03-17T00:19:19;18.37;;;17.97;;
7231;SDS011;3657;49.630;11.018;2024-03-17T00:21:47;17.70;;;17.20;;
7231;SDS011;3657;49.630;11.018;2024-03-17T00:24:17;18.53;;;18.07;;
7231;SDS011;3657;49.630;11.018;2024-03-17T00:26:44;18.27;;;17.90;;
7231;SDS011;3657;49.630;11.018;2024-03-17T00:29:11;18.93;;;18.43;;
7231;SDS011;3657;49.630;11.018;2024-03-17T00:31:37;18.60;;;18.20;;
7231;SDS011;3657;49.630;11.018;2024-03-17T00:34:04;18.60;;;18.20;;
7231;SDS011;3657;49.630;11.018;2024-03-17T00:36:30;18.70;;;18.30;;
7231;SDS011;3657;49.630;11.018;2024-03-17T00:38:56;18.07;;;17.73;;
7231;SDS011;3657;49.630;11.018;2024-03-17T00:41:23;17.10;;;16.70;;
7231;SDS011;3657;49.630;11.018;2024-03-17T00:43:50;18.67;;;18.07;;
7231;SDS011;3657;49.630;11.018;2024-03-17T00:46:17;18.30;;;17.90;;
7231;SDS011;3657;49.630;11.018;2024-03-17T00:48:46;18.47;;;17.87;;
7231;SDS011;3657;49.630;11.018;2024-03-17T00:51:12;18.57;;;18.07;;
7231;SDS011;3657;49.630;11.018;2024-03-17T00:53:39;17.40;;;17.10;;
7231;SDS011;3657;49.630;11.018;2024-03-17T00:56:05;18.27;;;17.87;;
7231;SDS011;3657;49.630;11.018;2024-03-17T00:58:33;17.63;;;17.33;;
7231;SDS011;3657;49.630;11.018;2024-03-17T01:00:59;17.07;;;16.67;;
7231;SDS011;3657;49.630;11.018;2024-03-17T01:03:26;18.53;;;18.03;;
7231;SDS011;3657;49.630;11.018;2024-03-17T01:05:52;17.90;;;17.50;;
7231;SDS011;3657;49.630;11.018;2024-03-17T01:08:19;18.37;;;17.90;;
7231;SDS011;3657;49.630;11.018;2024-03-17T01:10:46;18.13;;;17.47;;
7231;SDS011;3657;49.630;11.018;2024-03-17T01:13:16;17.87;;;17.57;;
7231;SDS011;3657;49.630;11.018;2024-03-17T01:15:44;17.57;;;17.17;;
7231;SDS011;3657;49.630;11.018;2024-03-17T01:18:11;18.33;;;17.73;;
7231;SDS011;3657;49.630;11.018;2024-03-17T01:20:37;17.63;;;17.23;;
7231;SDS011;3657;49.630;11.018;2024-03-17T01:23:04;17.87;;;17.47;;
7231;SDS011;3657;49.630;11.018;2024-03-17T01:25:30;17.17;;;16.67;;
7231;SDS011;3657;49.630;11.018;2024-03-17T01:27:57;17.27;;;16.97;;
7231;SDS011;3657;49.630;11.018;2024-03-17T01:30:23;17.53;;;17.20;;
7231;SDS011;3657;49.630;11.018;2024-03-17T01:32:51;17.40;;;17.10;;
7231;SDS011;3657;49.630;11.018;2024-03-17T01:35:17;18.80;;;18.40;;
7231;SDS011;3657;49.630;11.018;2024-03-17T01:37:45;17.70;;;17.40;;
7231;SDS011;3657;49.630;11.018;2024-03-17T01:40:11;18.10;;;17.60;;
7231;SDS011;3657;49.630;11.018;2024-03-17T01:42:38;18.30;;;17.90;;
7231;SDS011;3657;49.630;11.018;2024-03-17T01:45:13;17.70;;;17.40;;
7231;SDS011;3657;49.630;11.018;2024-03-17T01:47:52;18.00;;;17.70;;
7231;SDS011;3657;49.630;11.018;2024-03-17T01:50:19;18.70;;;18.20;;
7231;SDS011;3657;49.630;11.018;2024-03-17T01:52:49;17.43;;;17.13;;
7231;SDS011;3657;49.630;11.018;2024-03-17T01:55:17;18.13;;;17.73;;
7231;SDS011;3657;49.630;11.018;2024-03-17T01:57:44;17.00;;;16.70;;
7231;SDS011;3657;49.630;11.018;2024-03-17T02:00:11;17.47;;;17.17;;
7231;SDS011;3657;49.630;11.018;2024-03-17T02:02:37;17.73;;;17.33;;
7231;SDS011;3657;49.630;11.018;2024-03-17T02:05:06;18.57;;;18.07;;
7231;SDS011;3657;49.630;11.018;2024-03-17T02:07:32;17.03;;;16.73;;
7231;SDS011;3657;49.630;11.018;2024-03-17T02:09:58;18.97;;;18.57;;
7231;SDS011;3657;49.630;11.018;2024-03-17T02:12:24;18.27;;;17.73;;
7231;SDS011;3657;49.630;11.018;2024-03-17T02:14:51;19.03;;;18.63;;
7231;SDS011;3657;49.630;11.018;2024-03-17T02:17:17;18.67;;;18.37;;
7231;SDS011;3657;49.630;11.018;2024-03-17T02:19:44;18.90;;;18.50;;
7231;SDS011;3657;49.630;11.018;2024-03-17T02:22:13;17.93;;;17.60;;
7231;SDS011;3657;49.630;11.018;2024-03-17T02:24:39;17.93;;;17.53;;
7231;SDS011;3657;49.630;11.018;2024-03-17T02:27:06;17.47;;;17.07;;
7231;SDS011;3657;49.630;11.018;2024-03-17T02:29:32;17.93;;;17.57;;
7231;SDS011;3657;49.630;11.018;2024-03-17T02:31:59;18.73;;;18.27;;
7231;SDS011;3657;49.630;11.018;2024-03-17T02:34:24;18.67;;;18.17;;
7231;SDS011;3657;49.630;11.018;2024-03-17T02:36:51;18.20;;;17.80;;
7231;SDS011;3657;49.630;11.018;2024-03-17T02:39:18;18.73;;;18.33;;
7231;SDS011;3657;49.630;11.018;2024-03-17T02:41:59;18.77;;;18.37;;
7231;SDS011;3657;49.630;11.018;2024-03-17T02:44:26;18.83;;;18.43;;
7231;SDS011;3657;49.630;11.018;2024-03-17T02:46:53;18.33;;;17.93;;
7231;SDS011;3657;49.630;11.018;2024-03-17T02:49:19;18.33;;;17.93;;
7231;SDS011;3657;49.630;11.018;2024-03-17T02:51:47;18.43;;;18.03;;
7231;SDS011;3657;49.630;11.018;2024-03-17T02:54:14;18.60;;;18.20;;
7231;SDS011;3657;49.630;11.018;2024-03-17T02:56:42;18.47;;;18.07;;
7231;SDS011;3657;49.630;11.018;2024-03-17T02:59:08;18.03;;;17.63;;
7231;SDS011;3657;49.630;11.018;2024-03-17T03:01:36;18.50;;;18.10;;
7231;SDS011;3657;49.630;11.018;2024-03-17T03:04:02;18.87;;;18.37;;
7231;SDS011;3657;49.630;11.018;2024-03-17T03:06:46;19.13;;;18.60;;
7231;SDS011;3657;49.630;11.018;2024-03-17T03:09:14;18.00;;;17.60;;
7231;SDS011;3657;49.630;11.018;2024-03-17T03:11:47;18.23;;;17.83;;
7231;SDS011;3657;49.630;11.018;2024-03-17T03:14:14;18.03;;;17.63;;
7231;SDS011;3657;49.630;11.018;2024-03-17T03:16:41;18.90;;;18.50;;
7231;SDS011;3657;49.630;11.018;2024-03-17T03:19:08;17.03;;;16.73;;
7231;SDS011;3657;49.630;11.018;2024-03-17T03:21:34;18.23;;;17.73;;
7231;SDS011;3657;49.630;11.018;2024-03-17T03:24:01;18.23;;;17.70;;
7231;SDS011;3657;49.630;11.018;2024-03-17T03:26:27;18.13;;;17.73;;
7231;SDS011;3657;49.630;11.018;2024-03-17T03:28:56;18.57;;;18.17;;
7231;SDS011;3657;49.630;11.018;2024-03-17T03:31:22;17.97;;;17.57;;
7231;SDS011;3657;49.630;11.018;2024-03-17T03:33:49;18.93;;;18.53;;
7231;SDS011;3657;49.630;11.018;2024-03-17T03:36:16;18.07;;;17.67;;
7231;SDS011;3657;49.630;11.018;2024-03-17T03:38:43;18.10;;;17.70;;
7231;SDS011;3657;49.630;11.018;2024-03-17T03:41:10;17.57;;;17.17;;
7231;SDS011;3657;49.630;11.018;2024-03-17T03:43:40;17.47;;;17.07;;
7231;SDS011;3657;49.630;11.018;2024-03-17T03:46:09;18.40;;;18.00;;
7231;SDS011;3657;49.630;11.018;2024-03-17T03:48:36;18.00;;;17.60;;
7231;SDS011;3657;49.630;11.018;2024-03-17T03:51:03;17.63;;;17.33;;
7231;SDS011;3657;49.630;11.018;2024-03-17T03:53:31;17.93;;;17.53;;
7231;SDS011;3657;49.630;11.018;2024-03-17T03:55:58;18.70;;;18.27;;
7231;SDS011;3657;49.630;11.018;2024-03-17T03:58:26;18.77;;;18.27;;
7231;SDS011;3657;49.630;11.018;2024-03-17T04:00:53;18.40;;;17.90;;
7231;SDS011;3657;49.630;11.018;2024-03-17T04:03:22;19.17;;;18.67;;
7231;SDS011;3657;49.630;11.018;2024-03-17T04:05:49;17.83;;;17.43;;
7231;SDS011;3657;49.630;11.018;2024-03-17T04:08:19;17.87;;;17.47;;
7231;SDS011;3657;49.630;11.018;2024-03-17T04:10:49;19.97;;;19.17;;
7231;SDS011;3657;49.630;11.018;2024-03-17T04:13:16;18.50;;;18.07;;
7231;SDS011;3657;49.630;11.018;2024-03-17T04:15:43;18.80;;;18.40;;
7231;SDS011;3657;49.630;11.018;2024-03-17T04:18:10;18.00;;;17.60;;
7231;SDS011;3657;49.630;11.018;2024-03-17T04:20:38;18.50;;;18.10;;
7231;SDS011;3657;49.630;11.018;2024-03-17T04:23:06;18.00;;;17.60;;
7231;SDS011;3657;49.630;11.018;2024-03-17T04:25:33;17.30;;;16.90;;
7231;SDS011;3657;49.630;11.018;2024-03-17T04:28:00;18.50;;;18.10;;
7231;SDS011;3657;49.630;11.018;2024-03-17T04:30:27;18.47;;;18.07;;
7231;SDS011;3657;49.630;11.018;2024-03-17T04:32:54;17.50;;;17.17;;
7231;SDS011;3657;49.630;11.018;2024-03-17T04:35:20;17.97;;;17.57;;
7231;SDS011;3657;49.630;11.018;2024-03-17T04:37:48;18.33;;;17.87;;
7231;SDS011;3657;49.630;11.018;2024-03-17T04:40:15;18.17;;;17.77;;
7231;SDS011;3657;49.630;11.018;2024-03-17T04:42:42;18.93;;;18.43;;
7231;SDS011;3657;49.630;11.018;2024-03-17T04:45:09;18.77;;;18.27;;
7231;SDS011;3657;49.630;11.018;2024-03-17T04:47:36;17.77;;;17.37;;
7231;SDS011;3657;49.630;11.018;2024-03-17T04:50:03;17.87;;;17.47;;
7231;SDS011;3657;49.630;11.018;2024-03-17T04:52:30;17.33;;;17.00;;
7231;SDS011;3657;49.630;11.018;2024-03-17T04:54:59;18.10;;;17.73;;
7231;SDS011;3657;49.630;11.018;2024-03-17T04:57:25;17.90;;;17.50;;
7231;SDS011;3657;49.630;11.018;2024-03-17T04:59:52;17.53;;;17.23;;
7231;SDS011;3657;49.630;11.018;2024-03-17T05:02:19;17.43;;;17.03;;
7231;SDS011;3657;49.630;11.018;2024-03-17T05:04:46;17.90;;;17.60;;
7231;SDS011;3657;49.630;11.018;2024-03-17T05:07:13;19.03;;;18.50;;
7231;SDS011;3657;49.630;11.018;2024-03-17T05:09:40;17.57;;;17.17;;
7231;SDS011;3657;49.630;11.018;2024-03-17T05:12:10;17.93;;;17.53;;
7231;SDS011;3657;49.630;11.018;2024-03-17T05:14:37;19.20;;;18.80;;
7231;SDS011;3657;49.630;11.018;2024-03-17T05:17:04;17.53;;;17.13;;
7231;SDS011;3657;49.630;11.018;2024-03-17T05:19:31;18.50;;;17.90;;
7231;SDS011;3657;49.630;11.018;2024-03-17T05:21:57;17.63;;;17.33;;
7231;SDS011;3657;49.630;11.018;2024-03-17T05:24:24;18.13;;;17.73;;
7231;SDS011;3657;49.630;11.018;2024-03-17T05:26:51;17.93;;;17.63;;
7231;SDS011;3657;49.630;11.018;2024-03-17T05:29:19;18.00;;;17.67;;
7231;SDS011;3657;49.630;11.018;2024-03-17T05:31:47;17.20;;;16.80;;
7231;SDS011;3657;49.630;11.018;2024-03-17T05:34:15;17.97;;;17.57;;
7231;SDS011;3657;49.630;11.018;2024-03-17T05:36:42;18.83;;;18.43;;
7231;SDS011;3657;49.630;11.018;2024-03-17T05:39:08;17.53;;;17.13;;
7231;SDS011;3657;49.630;11.018;2024-03-17T05:41:35;17.53;;;17.10;;
7231;SDS011;3657;49.630;11.018;2024-03-17T05:44:02;18.13;;;17.73;;
7231;SDS011;3657;49.630;11.018;2024-03-17T05:46:30;19.17;;;18.67;;
7231;SDS011;3657;49.630;11.018;2024-03-17T05:48:57;18.17;;;17.77;;
7231;SDS011;3657;49.630;11.018;2024-03-17T05:51:24;17.93;;;17.43;;
7231;SDS011;3657;49.630;11.018;2024-03-17T05:53:53;18.13;;;17.73;;
7231;SDS011;3657;49.630;11.018;2024-03-17T05:56:21;19.27;;;18.87;;
7231;SDS011;3657;49.630;11.018;2024-03-17T05:58:48;18.47;;;18.07;;
7231;SDS011;3657;49.630;11.018;2024-03-17T06:01:15;18.53;;;18.13;;
7231;SDS011;3657;49.630;11.018;2024-03-17T06:03:43;19.40;;;18.90;;
7231;SDS011;3657;49.630;11.018;2024-03-17T06:06:10;21.40;;;20.90;;
7231;SDS011;3657;49.630;11.018;2024-03-17T06:08:37;18.80;;;18.40;;
7231;SDS011;3657;49.630;11.018;2024-03-17T06:11:04;20.30;;;19.80;;
7231;SDS011;3657;49.630;11.018;2024-03-17T06:13:31;20.23;;;19.63;;
7231;SDS011;3657;49.630;11.018;2024-03-17T06:15:58;20.37;;;19.80;;
7231;SDS011;3657;49.630;11.018;2024-03-17T06:18:26;20.00;;;19.50;;
7231;SDS011;3657;49.630;11.018;2024-03-17T06:20:55;17.80;;;17.40;;
7231;SDS011;3657;49.630;11.018;2024-03-17T06:23:23;18.63;;;18.23;;
7231;SDS011;3657;49.630;11.018;2024-03-17T06:25:52;18.73;;;18.33;;
7231;SDS011;3657;49.630;11.018;2024-03-17T06:28:19;19.00;;;18.50;;
7231;SDS011;3657;49.630;11.018;2024-03-17T06:30:46;17.93;;;17.53;;
7231;SDS011;3657;49.630;11.018;2024-03-17T06:33:21;19.50;;;19.00;;
7231;SDS011;3657;49.630;11.018;2024-03-17T06:35:47;19.63;;;19.10;;
7231;SDS011;3657;49.630;11.018;2024-03-17T06:38:15;20.00;;;19.50;;
7231;SDS011;3657;49.630;11.018;2024-03-17T06:40:47;18.70;;;18.30;;
7231;SDS011;3657;49.630;11.018;2024-03-17T06:43:15;19.20;;;18.80;;
7231;SDS011;3657;49.630;11.018;2024-03-17T06:45:42;19.50;;;19.10;;
7231;SDS011;3657;49.630;11.018;2024-03-17T06:48:08;19.30;;;18.70;;
7231;SDS011;3657;49.630;11.018;2024-03-17T06:50:37;19.27;;;18.87;;
7231;SDS011;3657;49.630;11.018;2024-03-17T06:53:05;19.30;;;18.90;;
7231;SDS011;3657;49.630;11.018;2024-03-17T06:55:35;20.30;;;19.70;;
7231;SDS011;3657;49.630;11.018;2024-03-17T06:58:01;21.33;;;20.73;;
7231;SDS011;3657;49.630;11.018;2024-03-17T07:00:29;19.27;;;18.77;;
7231;SDS011;3657;49.630;11.018;2024-03-17T07:02:56;19.27;;;18.87;;
7231;SDS011;3657;49.630;11.018;2024-03-17T07:05:22;19.70;;;19.20;;
7231;SDS011;3657;49.630;11.018;2024-03-17T07:07:49;19.27;;;18.87;;
7231;SDS011;3657;49.630;11.018;2024-03-17T07:10:16;21.87;;;21.27;;
7231;SDS011;3657;49.630;11.018;2024-03-17T07:12:45;22.50;;;21.60;;
7231;SDS011;3657;49.630;11.018;2024-03-17T07:15:11;20.23;;;19.70;;
7231;SDS011;3657;49.630;11.018;2024-03-17T07:17:39;20.10;;;19.60;;
7231;SDS011;3657;49.630;11.018;2024-03-17T07:20:09;19.37;;;18.87;;
7231;SDS011;3657;49.630;11.018;2024-03-17T07:22:39;19.80;;;19.30;;
7231;SDS011;3657;49.630;11.018;2024-03-17T07:25:06;19.60;;;19.10;;
7231;SDS011;3657;49.630;11.018;2024-03-17T07:27:34;19.10;;;18.70;;
7231;SDS011;3657;49.630;11.018;2024-03-17T07:30:05;20.10;;;19.60;;
7231;SDS011;3657;49.630;11.018;2024-03-17T07:32:33;20.13;;;19.63;;
7231;SDS011;3657;49.630;11.018;2024-03-17T07:35:00;23.03;;;22.03;;
7231;SDS011;3657;49.630;11.018;2024-03-17T07:37:28;20.03;;;19.33;;
7231;SDS011;3657;49.630;11.018;2024-03-17T07:39:55;22.43;;;21.63;;
7231;SDS011;3657;49.630;11.018;2024-03-17T07:42:22;22.13;;;21.53;;
7231;SDS011;3657;49.630;11.018;2024-03-17T07:44:48;21.30;;;20.70;;
7231;SDS011;3657;49.630;11.018;2024-03-17T07:47:17;23.70;;;23.00;;
7231;SDS011;3657;49.630;11.018;2024-03-17T07:49:45;21.73;;;21.13;;
7231;SDS011;3657;49.630;11.018;2024-03-17T07:52:13;21.97;;;21.37;;
7231;SDS011;3657;49.630;11.018;2024-03-17T07:54:40;23.23;;;22.53;;
7231;SDS011;3657;49.630;11.018;2024-03-17T07:57:07;21.50;;;20.90;;
7231;SDS011;3657;49.630;11.018;2024-03-17T07:59:34;21.70;;;21.03;;
7231;SDS011;3657;49.630;11.018;2024-03-17T08:02:01;22.63;;;21.83;;
7231;SDS011;3657;49.630;11.018;2024-03-17T08:04:29;23.23;;;22.33;;
7231;SDS011;3657;49.630;11.018;2024-03-17T08:06:56;22.63;;;21.87;;
7231;SDS011;3657;49.630;11.018;2024-03-17T08:09:24;23.10;;;22.40;;
7231;SDS011;3657;49.630;11.018;2024-03-17T08:11:51;22.33;;;21.63;;
7231;SDS011;3657;49.630;11.018;2024-03-17T08:14:18;22.27;;;21.57;;
7231;SDS011;3657;49.630;11.018;2024-03-17T08:16:45;23.00;;;22.20;;
7231;SDS011;3657;49.630;11.018;2024-03-17T08:19:12;23.20;;;22.60;;
7231;SDS011;3657;49.630;11.018;2024-03-17T08:21:40;28.70;;;27.57;;
7231;SDS011;3657;49.630;11.018;2024-03-17T08:24:07;22.50;;;21.90;;
7231;SDS011;3657;49.630;11.018;2024-03-17T08:26:33;22.27;;;21.63;;
7231;SDS011;3657;49.630;11.018;2024-03-17T08:29:00;22.57;;;21.73;;
7231;SDS011;3657;49.630;11.018;2024-03-17T08:31:27;22.33;;;21.73;;
7231;SDS011;3657;49.630;11.018;2024-03-17T08:33:54;22.37;;;21.23;;
7231;SDS011;3657;49.630;11.018;2024-03-17T08:36:21;22.47;;;21.67;;
7231;SDS011;3657;49.630;11.018;2024-03-17T08:38:49;20.70;;;20.03;;
7231;SDS011;3657;49.630;11.018;2024-03-17T08:41:20;21.20;;;20.67;;
7231;SDS011;3657;49.630;11.018;2024-03-17T08:43:46;22.17;;;21.37;;
7231;SDS011;3657;49.630;11.018;2024-03-17T08:46:13;21.53;;;20.93;;
7231;SDS011;3657;49.630;11.018;2024-03-17T08:48:41;21.53;;;20.93;;
7231;SDS011;3657;49.630;11.018;2024-03-17T08:51:08;21.47;;;20.87;;
7231;SDS011;3657;49.630;11.018;2024-03-17T08:53:35;22.20;;;21.53;;
7231;SDS011;3657;49.630;11.018;2024-03-17T08:56:05;21.70;;;21.10;;
7231;SDS011;3657;49.630;11.018;2024-03-17T08:58:33;20.93;;;20.40;;
7231;SDS011;3657;49.630;11.018;2024-03-17T09:01:03;22.83;;;22.13;;
7231;SDS011;3657;49.630;11.018;2024-03-17T09:03:31;21.77;;;20.97;;
7231;SDS011;3657;49.630;11.018;2024-03-17T09:05:58;21.43;;;20.90;;
7231;SDS011;3657;49.630;11.018;2024-03-17T09:08:24;21.23;;;20.63;;
7231;SDS011;3657;49.630;11.018;2024-03-17T09:10:53;23.27;;;22.57;;
7231;SDS011;3657;49.630;11.018;2024-03-17T09:13:22;20.00;;;19.40;;
7231;SDS011;3657;49.630;11.018;2024-03-17T09:15:51;20.90;;;20.40;;
7231;SDS011;3657;49.630;11.018;2024-03-17T09:18:18;22.13;;;21.23;;
7231;SDS011;3657;49.630;11.018;2024-03-17T09:20:45;21.27;;;20.77;;
7231;SDS011;3657;49.630;11.018;2024-03-17T09:23:12;22.80;;;22.13;;
7231;SDS011;3657;49.630;11.018;2024-03-17T09:25:39;20.67;;;20.17;;
7231;SDS011;3657;49.630;11.018;2024-03-17T09:28:06;21.83;;;21.23;;
7231;SDS011;3657;49.630;11.018;2024-03-17T09:30:35;21.93;;;21.23;;
7231;SDS011;3657;49.630;11.018;2024-03-17T09:33:01;21.43;;;20.73;;
7231;SDS011;3657;49.630;11.018;2024-03-17T09:35:29;20.53;;;20.03;;
7231;SDS011;3657;49.630;11.018;2024-03-17T09:37:56;20.87;;;20.17;;
7231;SDS011;3657;49.630;11.018;2024-03-17T09:40:23;20.97;;;20.37;;
7231;SDS011;3657;49.630;11.018;2024-03-17T09:42:52;21.00;;;20.30;;
7231;SDS011;3657;49.630;11.018;2024-03-17T09:45:19;21.83;;;21.13;;
7231;SDS011;3657;49.630;11.018;2024-03-17T09:47:50;21.00;;;20.30;;
7231;SDS011;3657;49.630;11.018;2024-03-17T09:50:20;21.43;;;20.83;;
7231;SDS011;3657;49.630;11.018;2024-03-17T09:52:54;21.67;;;20.87;;
7231;SDS011;3657;49.630;11.018;2024-03-17T09:55:21;21.13;;;20.43;;
7231;SDS011;3657;49.630;11.018;2024-03-17T09:57:49;21.10;;;20.43;;
7231;SDS011;3657;49.630;11.018;2024-03-17T10:00:16;20.60;;;20.10;;
7231;SDS011;3657;49.630;11.018;2024-03-17T10:02:43;21.70;;;21.20;;
7231;SDS011;3657;49.630;11.018;2024-03-17T10:05:21;21.50;;;20.77;;
7231;SDS011;3657;49.630;11.018;2024-03-17T10:07:50;21.23;;;20.63;;
7231;SDS011;3657;49.630;11.018;2024-03-17T10:10:18;20.83;;;20.33;;
7231;SDS011;3657;49.630;11.018;2024-03-17T10:12:48;20.60;;;20.10;;
7231;SDS011;3657;49.630;11.018;2024-03-17T10:15:16;20.73;;;20.20;;
7231;SDS011;3657;49.630;11.018;2024-03-17T10:17:43;22.23;;;21.70;;
7231;SDS011;3657;49.630;11.018;2024-03-17T10:20:11;24.40;;;23.63;;
7231;SDS011;3657;49.630;11.018;2024-03-17T10:22:49;21.03;;;20.43;;
7231;SDS011;3657;49.630;11.018;2024-03-17T10:25:24;21.50;;;20.93;;
7231;SDS011;3657;49.630;11.018;2024-03-17T10:27:52;22.67;;;21.97;;
7231;SDS011;3657;49.630;11.018;2024-03-17T10:30:20;21.60;;;20.77;;
7231;SDS011;3657;49.630;11.018;2024-03-17T10:32:54;22.00;;;21.40;;
7231;SDS011;3657;49.630;11.018;2024-03-17T10:35:32;20.60;;;20.10;;
7231;SDS011;3657;49.630;11.018;2024-03-17T10:38:01;21.30;;;20.60;;
7231;SDS011;3657;49.630;11.018;2024-03-17T10:40:31;22.60;;;21.63;;
7231;SDS011;3657;49.630;11.018;2024-03-17T10:43:01;22.17;;;21.53;;
7231;SDS011;3657;49.630;11.018;2024-03-17T10:45:28;21.03;;;20.37;;
7231;SDS011;3657;49.630;11.018;2024-03-17T10:48:00;20.37;;;19.87;;
7231;SDS011;3657;49.630;11.018;2024-03-17T10:50:30;21.27;;;20.70;;
7231;SDS011;3657;49.630;11.018;2024-03-17T10:53:01;22.20;;;21.50;;
7231;SDS011;3657;49.630;11.018;2024-03-17T10:55:36;23.67;;;22.87;;
7231;SDS011;3657;49.630;11.018;2024-03-17T10:58:12;20.87;;;20.27;;
7231;SDS011;3657;49.630;11.018;2024-03-17T11:00:49;21.63;;;21.07;;
7231;SDS011;3657;49.630;11.018;2024-03-17T11:03:17;21.60;;;21.00;;
7231;SDS011;3657;49.630;11.018;2024-03-17T11:05:46;20.77;;;20.07;;
7231;SDS011;3657;49.630;11.018;2024-03-17T11:08:16;20.90;;;20.30;;
7231;SDS011;3657;49.630;11.018;2024-03-17T11:10:48;21.43;;;20.83;;
7231;SDS011;3657;49.630;11.018;2024-03-17T11:13:22;20.80;;;20.20;;
7231;SDS011;3657;49.630;11.018;2024-03-17T11:15:50;21.63;;;20.93;;
7231;SDS011;3657;49.630;11.018;2024-03-17T11:18:27;21.17;;;20.67;;
7231;SDS011;3657;49.630;11.018;2024-03-17T11:20:57;20.60;;;20.17;;
7231;SDS011;3657;49.630;11.018;2024-03-17T11:23:29;21.10;;;20.57;;
7231;SDS011;3657;49.630;11.018;2024-03-17T11:25:57;20.07;;;19.47;;
7231;SDS011;3657;49.630;11.018;2024-03-17T11:28:46;20.23;;;19.63;;
7231;SDS011;3657;49.630;11.018;2024-03-17T11:34:00;21.87;;;21.17;;
7231;SDS011;3657;49.630;11.018;2024-03-17T11:36:35;22.80;;;22.07;;
7231;SDS011;3657;49.630;11.018;2024-03-17T11:39:05;22.27;;;21.67;;
7231;SDS011;3657;49.630;11.018;2024-03-17T11:41:36;22.90;;;22.20;;
7231;SDS011;3657;49.630;11.018;2024-03-17T11:44:12;21.67;;;21.07;;
7231;SDS011;3657;49.630;11.018;2024-03-17T11:46:52;23.43;;;22.73;;
7231;SDS011;3657;49.630;11.018;2024-03-17T11:49:20;22.67;;;22.03;;
7231;SDS011;3657;49.630;11.018;2024-03-17T11:51:47;21.90;;;21.30;;
7231;SDS011;3657;49.630;11.018;2024-03-17T11:54:17;22.70;;;21.90;;
7231;SDS011;3657;49.630;11.018;2024-03-17T11:56:44;22.77;;;22.17;;
7231;SDS011;3657;49.630;11.018;2024-03-17T11:59:12;23.03;;;22.23;;
7231;SDS011;3657;49.630;11.018;2024-03-17T12:01:39;19.50;;;19.10;;
7231;SDS011;3657;49.630;11.018;2024-03-17T12:04:06;21.07;;;20.37;;
7231;SDS011;3657;49.630;11.018;2024-03-17T12:06:32;22.57;;;21.97;;
7231;SDS011;3657;49.630;11.018;2024-03-17T12:09:10;21.70;;;21.00;;
7231;SDS011;3657;49.630;11.018;2024-03-17T12:11:43;21.60;;;21.00;;
7231;SDS011;3657;49.630;11.018;2024-03-17T12:14:14;21.23;;;20.67;;
7231;SDS011;3657;49.630;11.018;2024-03-17T12:16:47;21.40;;;20.80;;
7231;SDS011;3657;49.630;11.018;2024-03-17T12:19:17;21.40;;;20.80;;
7231;SDS011;3657;49.630;11.018;2024-03-17T12:21:44;21.00;;;20.43;;
7231;SDS011;3657;49.630;11.018;2024-03-17T12:24:15;21.17;;;20.50;;
7231;SDS011;3657;49.630;11.018;2024-03-17T12:26:44;22.10;;;21.23;;
7231;SDS011;3657;49.630;11.018;2024-03-17T12:29:25;19.90;;;19.30;;
7231;SDS011;3657;49.630;11.018;2024-03-17T12:31:53;21.70;;;21.03;;
7231;SDS011;3657;49.630;11.018;2024-03-17T12:34:21;21.00;;;20.40;;
7231;SDS011;3657;49.630;11.018;2024-03-17T12:36:48;21.07;;;20.50;;
7231;SDS011;3657;49.630;11.018;2024-03-17T12:39:18;21.30;;;20.70;;
7231;SDS011;3657;49.630;11.018;2024-03-17T12:41:54;20.47;;;19.97;;
7231;SDS011;3657;49.630;11.018;2024-03-17T12:44:31;20.07;;;19.57;;
7231;SDS011;3657;49.630;11.018;2024-03-17T12:47:00;20.87;;;20.30;;
7231;SDS011;3657;49.630;11.018;2024-03-17T12:49:29;21.37;;;20.77;;
7231;SDS011;3657;49.630;11.018;2024-03-17T12:51:55;20.80;;;20.30;;
7231;SDS011;3657;49.630;11.018;2024-03-17T12:54:24;21.77;;;21.23;;
7231;SDS011;3657;49.630;11.018;2024-03-17T12:57:03;21.97;;;21.17;;
7231;SDS011;3657;49.630;11.018;2024-03-17T12:59:48;20.70;;;20.10;;
7231;SDS011;3657;49.630;11.018;2024-03-17T13:02:44;21.07;;;20.47;;
7231;SDS011;3657;49.630;11.018;2024-03-17T13:05:15;20.97;;;20.37;;
7231;SDS011;3657;49.630;11.018;2024-03-17T13:07:43;20.87;;;20.33;;
7231;SDS011;3657;49.630;11.018;2024-03-17T13:10:11;22.07;;;21.37;;
7231;SDS011;3657;49.630;11.018;2024-03-17T13:12:41;19.70;;;19.20;;
7231;SDS011;3657;49.630;11.018;2024-03-17T13:15:08;21.60;;;20.90;;
7231;SDS011;3657;49.630;11.018;2024-03-17T13:17:41;20.97;;;20.37;;
7231;SDS011;3657;49.630;11.018;2024-03-17T13:20:14;20.87;;;20.37;;
7231;SDS011;3657;49.630;11.018;2024-03-17T13:22:42;21.47;;;20.77;;
7231;SDS011;3657;49.630;11.018;2024-03-17T13:25:12;19.83;;;19.27;;
7231;SDS011;3657;49.630;11.018;2024-03-17T13:27:42;20.40;;;19.80;;
7231;SDS011;3657;49.630;11.018;2024-03-17T13:30:10;20.80;;;20.07;;
7231;SDS011;3657;49.630;11.018;2024-03-17T13:32:40;20.67;;;20.00;;
7231;SDS011;3657;49.630;11.018;2024-03-17T13:35:13;21.53;;;20.73;;
7231;SDS011;3657;49.630;11.018;2024-03-17T13:37:41;21.27;;;20.47;;
7231;SDS011;3657;49.630;11.018;2024-03-17T13:40:08;20.73;;;20.20;;
7231;SDS011;3657;49.630;11.018;2024-03-17T13:42:37;20.70;;;20.10;;
7231;SDS011;3657;49.630;11.018;2024-03-17T13:45:06;20.87;;;20.27;;
7231;SDS011;3657;49.630;11.018;2024-03-17T13:47:41;20.83;;;20.33;;
7231;SDS011;3657;49.630;11.018;2024-03-17T13:50:13;20.37;;;19.87;;
7231;SDS011;3657;49.630;11.018;2024-03-17T13:52:40;19.97;;;19.37;;
7231;SDS011;3657;49.630;11.018;2024-03-17T13:55:08;21.43;;;20.83;;
7231;SDS011;3657;49.630;11.018;2024-03-17T13:57:41;20.13;;;19.63;;
7231;SDS011;3657;49.630;11.018;2024-03-17T14:00:10;20.27;;;19.73;;
7231;SDS011;3657;49.630;11.018;2024-03-17T14:02:41;21.50;;;20.77;;
7231;SDS011;3657;49.630;11.018;2024-03-17T14:05:09;20.80;;;20.20;;
7231;SDS011;3657;49.630;11.018;2024-03-17T14:07:39;20.60;;;20.10;;
7231;SDS011;3657;49.630;11.018;2024-03-17T14:10:06;20.40;;;19.60;;
7231;SDS011;3657;49.630;11.018;2024-03-17T14:12:34;20.00;;;19.30;;
7231;SDS011;3657;49.630;11.018;2024-03-17T14:15:01;21.70;;;21.10;;
7231;SDS011;3657;49.630;11.018;2024-03-17T14:17:31;20.70;;;20.10;;
7231;SDS011;3657;49.630;11.018;2024-03-17T14:19:58;19.90;;;19.40;;
7231;SDS011;3657;49.630;11.018;2024-03-17T14:22:25;19.43;;;19.03;;
7231;SDS011;3657;49.630;11.018;2024-03-17T14:24:52;19.87;;;19.37;;
7231;SDS011;3657;49.630;11.018;2024-03-17T14:27:19;20.37;;;19.87;;
7231;SDS011;3657;49.630;11.018;2024-03-17T14:29:46;19.93;;;19.43;;
7231;SDS011;3657;49.630;11.018;2024-03-17T14:32:13;19.53;;;19.03;;
7231;SDS011;3657;49.630;11.018;2024-03-17T14:34:41;20.20;;;19.60;;
7231;SDS011;3657;49.630;11.018;2024-03-17T14:37:07;19.47;;;18.97;;
7231;SDS011;3657;49.630;11.018;2024-03-17T14:39:34;20.97;;;20.33;;
7231;SDS011;3657;49.630;11.018;2024-03-17T14:42:03;21.37;;;20.77;;
7231;SDS011;3657;49.630;11.018;2024-03-17T14:44:31;21.07;;;20.47;;